Time;durP1;ratioP1;P1;durP2;ratioP2;P2;SDS_P1;SDS_P2;PMS_P1;PMS_P2;Temp;Humidity;BMP_temperature;BMP_pressure;BME280_temperature;BME280_humidity;BME280_pressure;Samples;Min_cycle;Max_cycle;Signal;HPM_P1;HPM_P2
2020/12/31 00:01:38;;;;;;;12.27;10.18;;;;;;;5.49;68.83;99737.63;4987942;28;96726;-70
2020/12/31 00:04:05;;;;;;;11.88;10.35;;;;;;;5.42;69.16;99744.75;4989452;28;98549;-70
2020/12/31 00:06:32;;;;;;;12.63;10.07;;;;;;;5.56;68.15;99753.75;4985610;28;97522;-70
2020/12/31 00:08:59;;;;;;;13.60;9.68;;;;;;;5.64;67.52;99744.78;4983949;28;96707;-69
2020/12/31 00:11:25;;;;;;;11.98;10.68;;;;;;;5.66;67.32;99752.50;4984180;28;97011;-69
2020/12/31 00:13:51;;;;;;;12.40;9.65;;;;;;;5.59;67.22;99741.53;4983497;28;100003;-69
2020/12/31 00:16:18;;;;;;;12.60;9.88;;;;;;;5.56;67.29;99741.66;4984093;28;98417;-69
2020/12/31 00:18:45;;;;;;;12.65;10.48;;;;;;;5.67;66.93;99752.44;4983679;28;96895;-69
2020/12/31 00:21:11;;;;;;;12.90;9.20;;;;;;;5.59;67.12;99746.69;4984395;28;97443;-69
2020/12/31 00:23:37;;;;;;;11.48;9.20;;;;;;;5.53;67.08;99741.78;4984688;28;100537;-69
2020/12/31 00:26:04;;;;;;;13.35;10.32;;;;;;;5.52;66.66;99742.66;4983511;28;99286;-69
2020/12/31 00:28:31;;;;;;;13.30;10.63;;;;;;;5.53;66.67;99739.19;4966494;28;96928;-69
2020/12/31 00:30:57;;;;;;;14.00;11.55;;;;;;;5.43;67.30;99737.84;4984545;28;99102;-69
2020/12/31 00:33:23;;;;;;;14.52;9.95;;;;;;;5.42;67.26;99738.75;4983474;28;98665;-70
2020/12/31 00:35:54;;;;;;;16.13;11.68;;;;;;;5.33;67.26;99739.94;4983510;28;98585;-69
2020/12/31 00:38:21;;;;;;;18.70;14.07;;;;;;;5.31;67.21;99740.88;4983415;28;96605;-69
2020/12/31 00:40:47;;;;;;;20.33;15.80;;;;;;;5.33;67.24;99745.13;4983308;28;99959;-69
2020/12/31 00:43:13;;;;;;;21.10;15.80;;;;;;;5.06;68.17;99741.78;4983884;28;98454;-69
2020/12/31 00:45:40;;;;;;;18.33;13.32;;;;;;;5.03;68.88;99751.38;4982672;28;98691;-69
2020/12/31 00:48:06;;;;;;;17.05;13.35;;;;;;;5.15;68.11;99745.75;4984509;28;99908;-69
2020/12/31 00:50:33;;;;;;;15.68;12.07;;;;;;;5.31;67.12;99748.63;4983968;28;96884;-69
2020/12/31 00:53:00;;;;;;;12.73;10.48;;;;;;;5.32;66.87;99755.47;4983167;28;97557;-69
2020/12/31 00:55:27;;;;;;;12.45;10.13;;;;;;;5.35;66.75;99750.22;4966713;28;99890;-69
2020/12/31 00:57:55;;;;;;;15.82;12.90;;;;;;;5.18;67.53;99762.00;4981930;28;97074;-70
2020/12/31 01:00:22;;;;;;;17.25;11.95;;;;;;;5.10;67.75;99758.84;4983912;28;97029;-70
2020/12/31 01:03:08;;;;;;;11.80;10.60;;;;;;;4.98;68.89;99770.44;4982058;28;99356;-69
2020/12/31 01:05:35;;;;;;;13.77;11.40;;;;;;;5.08;68.91;99783.06;4983675;28;98558;-69
2020/12/31 01:08:01;;;;;;;9.77;8.75;;;;;;;5.14;68.73;99769.91;4982489;28;100426;-69
2020/12/31 01:10:27;;;;;;;10.90;9.55;;;;;;;5.19;69.27;99779.19;4984236;28;97297;-69
2020/12/31 01:12:54;;;;;;;10.70;9.60;;;;;;;5.24;69.35;99773.88;4985259;28;98640;-69
2020/12/31 01:15:20;;;;;;;10.98;9.80;;;;;;;5.30;68.92;99780.56;4966878;28;98974;-69
2020/12/31 01:17:46;;;;;;;11.90;10.63;;;;;;;5.25;69.14;99772.97;4984069;28;96983;-69
2020/12/31 01:20:13;;;;;;;12.95;11.63;;;;;;;5.31;68.56;99772.72;4984163;28;98367;-69
2020/12/31 01:22:39;;;;;;;12.07;10.57;;;;;;;5.14;69.69;99778.50;4984156;28;98562;-69
2020/12/31 01:25:06;;;;;;;12.43;10.77;;;;;;;5.02;70.11;99781.53;4986856;28;98810;-69
2020/12/31 01:27:33;;;;;;;12.82;11.52;;;;;;;5.06;70.23;99777.94;4986662;28;97020;-69
2020/12/31 01:29:59;;;;;;;12.30;9.75;;;;;;;5.26;69.58;99774.63;4986728;28;99556;-69
2020/12/31 01:32:25;;;;;;;12.05;10.32;;;;;;;5.29;69.27;99777.13;4986736;28;98447;-69
2020/12/31 01:34:52;;;;;;;10.68;9.10;;;;;;;5.09;69.59;99784.72;4986790;28;99688;-69
2020/12/31 01:37:19;;;;;;;11.00;9.90;;;;;;;5.00;70.49;99783.31;4985390;28;97875;-69
2020/12/31 01:39:45;;;;;;;11.40;10.07;;;;;;;4.96;70.57;99782.59;4986480;28;97426;-69
2020/12/31 01:42:12;;;;;;;11.40;10.20;;;;;;;4.97;70.35;99780.84;4986477;28;98479;-69
2020/12/31 01:44:38;;;;;;;11.88;10.70;;;;;;;5.15;69.88;99780.19;4986859;28;98477;-69
2020/12/31 01:47:06;;;;;;;11.93;10.00;;;;;;;5.32;68.69;99773.56;4985737;28;97207;-69
2020/12/31 01:49:33;;;;;;;11.30;10.13;;;;;;;5.17;68.83;99773.25;4968961;28;97554;-70
2020/12/31 01:52:00;;;;;;;10.32;9.23;;;;;;;5.11;70.07;99773.44;4968590;28;98557;-70
2020/12/31 01:54:26;;;;;;;12.32;9.00;;;;;;;5.15;69.60;99759.50;4987782;28;97989;-70
2020/12/31 01:56:57;;;;;;;10.38;9.30;;;;;;;5.29;68.79;99768.53;4986743;28;97303;-70
2020/12/31 01:59:23;;;;;;;10.85;9.65;;;;;;;5.20;69.08;99769.69;4987923;28;97391;-70
2020/12/31 02:01:50;;;;;;;9.45;7.45;;;;;;;5.21;69.32;99774.78;4987178;28;98744;-70
2020/12/31 02:04:16;;;;;;;11.07;8.70;;;;;;;5.11;69.52;99781.19;4986412;28;97674;-70
2020/12/31 02:06:43;;;;;;;9.80;8.52;;;;;;;5.11;69.48;99785.50;4986698;28;99612;-70
2020/12/31 02:09:10;;;;;;;8.40;7.43;;;;;;;5.17;68.88;99781.00;4968620;28;97540;-70
2020/12/31 02:11:36;;;;;;;13.38;8.40;;;;;;;4.96;69.67;99792.91;4967951;28;99837;-70
2020/12/31 02:14:03;;;;;;;10.23;6.90;;;;;;;5.02;69.22;99794.44;4985686;28;98556;-70
2020/12/31 02:16:34;;;;;;;9.23;7.70;;;;;;;5.18;68.31;99782.69;4985473;28;96741;-70
2020/12/31 02:19:06;;;;;;;8.05;6.95;;;;;;;5.33;67.52;99781.28;4968656;28;97206;-70
2020/12/31 02:21:37;;;;;;;11.95;8.45;;;;;;;5.31;67.58;99779.66;4986606;28;98697;-70
2020/12/31 02:24:05;;;;;;;8.77;7.00;;;;;;;5.15;67.73;99793.09;4985891;28;98520;-70
2020/12/31 02:26:32;;;;;;;7.90;7.07;;;;;;;5.11;68.06;99791.53;4985124;28;96760;-67
2020/12/31 02:28:59;;;;;;;8.98;6.50;;;;;;;5.20;67.26;99786.03;4984831;28;97425;-66
2020/12/31 02:31:29;;;;;;;9.63;7.00;;;;;;;5.33;66.69;99785.63;4985792;28;98462;-67
2020/12/31 02:33:56;;;;;;;10.48;6.10;;;;;;;5.30;66.19;99786.56;4986001;28;98517;-67
2020/12/31 02:36:24;;;;;;;8.23;6.25;;;;;;;5.32;66.07;99782.16;4985934;28;98435;-67
2020/12/31 02:38:50;;;;;;;7.22;5.88;;;;;;;5.20;66.72;99792.94;4986931;28;97516;-72
2020/12/31 02:41:16;;;;;;;7.18;6.00;;;;;;;5.14;67.40;99790.59;4987256;28;98361;-73
2020/12/31 02:43:43;;;;;;;6.70;5.72;;;;;;;5.04;68.36;99792.63;4968107;28;100653;-73
2020/12/31 02:46:10;;;;;;;5.88;5.28;;;;;;;5.08;67.85;99790.81;4985727;28;97830;-73
2020/12/31 02:48:37;;;;;;;6.75;6.05;;;;;;;5.19;66.88;99791.28;4973674;28;97126;-73
2020/12/31 02:51:04;;;;;;;7.07;6.35;;;;;;;5.04;67.47;99792.63;4973606;28;98476;-73
2020/12/31 02:53:30;;;;;;;8.05;5.70;;;;;;;4.97;67.94;99797.19;4991694;28;98129;-73
2020/12/31 02:55:57;;;;;;;6.97;5.97;;;;;;;4.90;68.58;99792.25;4991921;28;96608;-73
2020/12/31 02:58:23;;;;;;;7.47;6.78;;;;;;;5.10;67.54;99792.41;4991907;28;96669;-73
2020/12/31 03:00:50;;;;;;;8.93;7.70;;;;;;;5.20;66.79;99785.19;4991805;28;98437;-73
2020/12/31 03:03:16;;;;;;;8.48;7.22;;;;;;;5.13;67.33;99787.16;4990931;28;97607;-73
2020/12/31 03:05:43;;;;;;;7.82;6.45;;;;;;;5.09;66.92;99785.56;4991735;28;98206;-73
2020/12/31 03:08:09;;;;;;;7.43;6.68;;;;;;;5.12;66.80;99787.22;4991013;28;96627;-73
2020/12/31 03:10:36;;;;;;;7.85;6.30;;;;;;;5.07;66.86;99789.97;4990218;28;98498;-73
2020/12/31 03:13:03;;;;;;;7.88;6.18;;;;;;;4.92;67.78;99787.91;4991536;28;98654;-73
2020/12/31 03:15:29;;;;;;;6.72;6.07;;;;;;;4.84;67.59;99793.31;4990727;28;96743;-72
2020/12/31 03:17:55;;;;;;;8.40;6.65;;;;;;;4.78;68.48;99790.94;4990176;28;96743;-74
2020/12/31 03:20:21;;;;;;;6.78;6.03;;;;;;;4.88;67.80;99789.72;4971474;28;98757;-73
2020/12/31 03:22:48;;;;;;;8.20;6.43;;;;;;;5.02;66.45;99791.84;4990857;28;98621;-73
2020/12/31 03:25:14;;;;;;;6.85;6.20;;;;;;;5.08;65.83;99794.22;4990341;28;96630;-72
2020/12/31 03:27:40;;;;;;;6.72;6.10;;;;;;;4.95;66.24;99792.94;4991266;28;96774;-66
2020/12/31 03:30:07;;;;;;;13.10;8.32;;;;;;;4.98;66.30;99800.59;4989693;28;98477;-66
2020/12/31 03:32:33;;;;;;;8.05;7.25;;;;;;;4.96;65.90;99792.91;4991194;28;98525;-66
2020/12/31 03:35:00;;;;;;;7.50;6.70;;;;;;;5.03;65.59;99793.53;4991012;28;96545;-66
2020/12/31 03:37:26;;;;;;;6.18;5.45;;;;;;;5.06;65.25;99796.03;4991263;28;98182;-66
2020/12/31 03:39:52;;;;;;;7.88;7.03;;;;;;;5.05;64.98;99794.31;4990146;28;98469;-66
2020/12/31 03:42:19;;;;;;;8.10;7.28;;;;;;;4.86;65.75;99791.53;4990881;28;98472;-66
2020/12/31 03:44:45;;;;;;;10.32;6.82;;;;;;;4.90;65.41;99787.09;4991019;28;96641;-66
2020/12/31 03:47:12;;;;;;;10.75;6.65;;;;;;;4.96;65.57;99779.16;4989813;28;96706;-66
2020/12/31 03:49:38;;;;;;;7.70;6.85;;;;;;;5.02;65.44;99785.84;4990357;28;98576;-66
2020/12/31 03:52:05;;;;;;;6.93;6.28;;;;;;;4.99;65.50;99781.63;4990608;28;98612;-65
2020/12/31 03:54:31;;;;;;;7.25;5.72;;;;;;;4.91;65.48;99775.88;4990252;28;96728;-65
2020/12/31 03:56:57;;;;;;;8.95;7.28;;;;;;;4.91;65.82;99775.88;4990484;28;96690;-65
2020/12/31 03:59:24;;;;;;;8.15;6.13;;;;;;;4.92;65.94;99772.41;4989851;28;98651;-66
2020/12/31 04:01:50;;;;;;;7.00;6.22;;;;;;;4.89;66.28;99777.66;4989863;28;98682;-66
2020/12/31 04:04:16;;;;;;;8.73;7.00;;;;;;;4.91;66.02;99776.72;4988337;28;96543;-66
2020/12/31 04:06:43;;;;;;;10.07;6.28;;;;;;;4.78;66.75;99779.78;4989726;28;96703;-66
2020/12/31 04:09:09;;;;;;;6.68;5.57;;;;;;;4.79;66.68;99768.53;4983686;28;99783;-66
2020/12/31 04:11:35;;;;;;;7.38;6.63;;;;;;;4.82;66.68;99771.88;4985043;28;98556;-65
2020/12/31 04:14:02;;;;;;;15.95;6.47;;;;;;;4.56;67.36;99772.75;4984246;28;97785;-66
2020/12/31 04:16:28;;;;;;;9.27;6.50;;;;;;;4.34;68.89;99774.34;4984056;28;96752;-67
2020/12/31 04:18:54;;;;;;;7.40;6.32;;;;;;;4.54;67.96;99779.69;4983589;28;97338;-65
2020/12/31 04:21:21;;;;;;;9.38;6.22;;;;;;;4.60;67.84;99782.06;4985213;28;99376;-65
2020/12/31 04:23:48;;;;;;;7.63;6.93;;;;;;;4.53;67.97;99785.75;4984529;28;98105;-65
2020/12/31 04:26:15;;;;;;;8.88;7.68;;;;;;;4.48;68.15;99782.47;4984687;28;96892;-65
2020/12/31 04:28:42;;;;;;;8.30;6.63;;;;;;;4.46;68.25;99781.66;4983152;28;97491;-65
2020/12/31 04:31:08;;;;;;;6.22;5.63;;;;;;;4.46;68.26;99792.00;4983965;28;98778;-66
2020/12/31 04:33:34;;;;;;;7.15;5.95;;;;;;;4.47;68.20;99783.34;4983352;28;97707;-65
2020/12/31 04:36:01;;;;;;;8.10;5.82;;;;;;;4.52;67.88;99788.38;4984307;28;97956;-64
2020/12/31 04:38:27;;;;;;;6.60;5.90;;;;;;;4.67;66.95;99780.97;4984066;28;98599;-65
2020/12/31 04:40:54;;;;;;;11.55;6.18;;;;;;;4.68;66.49;99787.81;4970236;28;99659;-65
2020/12/31 04:43:20;;;;;;;8.65;6.70;;;;;;;4.52;67.13;99783.22;4990707;28;97247;-66
2020/12/31 04:45:47;;;;;;;7.32;6.68;;;;;;;4.55;66.83;99786.53;4969279;28;96722;-65
2020/12/31 04:48:21;;;;;;;7.72;5.93;;;;;;;4.63;66.68;99789.69;4973145;28;98453;-66
2020/12/31 04:50:48;;;;;;;;;;;;;;;4.48;67.06;99795.38;4983660;28;98615;-64
2020/12/31 04:53:15;;;;;;;7.97;5.80;;;;;;;4.34;67.80;99797.56;4990979;28;96612;-65
2020/12/31 04:55:45;;;;;;;6.40;5.78;;;;;;;4.28;67.57;99802.91;4990763;28;96602;-65
2020/12/31 04:58:13;;;;;;;8.05;6.00;;;;;;;4.15;68.00;99798.09;4992429;28;98594;-67
2020/12/31 05:00:40;;;;;;;7.78;6.97;;;;;;;4.29;68.08;99804.59;4994673;28;98609;-65
2020/12/31 05:03:06;;;;;;;6.88;5.63;;;;;;;4.28;68.18;99808.91;4993861;28;96680;-66
2020/12/31 05:05:33;;;;;;;7.45;5.57;;;;;;;4.41;67.78;99810.19;4994188;28;96649;-65
2020/12/31 05:08:00;;;;;;;5.78;5.05;;;;;;;4.42;67.15;99806.75;4992752;28;98611;-66
2020/12/31 05:10:26;;;;;;;7.22;6.55;;;;;;;4.47;67.82;99814.31;4993776;28;98459;-66
2020/12/31 05:13:07;;;;;;;7.13;6.00;;;;;;;4.51;67.59;99820.25;4994271;28;96653;-66
2020/12/31 05:15:41;;;;;;;5.40;4.85;;;;;;;4.49;67.23;99814.28;4990422;28;97327;-65
2020/12/31 05:18:27;;;;;;;6.88;5.95;;;;;;;4.51;67.03;99815.91;4993236;28;98380;-65
2020/12/31 05:20:54;;;;;;;6.65;5.35;;;;;;;4.47;67.05;99822.06;4988137;28;97317;-65
2020/12/31 05:23:27;;;;;;;6.80;6.10;;;;;;;4.37;67.46;99824.13;4994078;28;97809;-64
2020/12/31 05:25:54;;;;;;;5.93;4.75;;;;;;;4.57;66.65;99826.03;4993241;28;96949;-67
2020/12/31 05:28:33;;;;;;;5.30;4.53;;;;;;;4.54;66.53;99828.75;5001875;28;98595;-66
2020/12/31 05:31:03;;;;;;;6.20;4.57;;;;;;;4.52;67.17;99832.25;4985660;28;98016;-65
2020/12/31 05:33:33;;;;;;;6.80;5.63;;;;;;;4.30;67.26;99832.09;4990093;28;100345;-65
2020/12/31 05:36:18;;;;;;;8.68;5.60;;;;;;;4.23;68.08;99828.00;4986881;28;96771;-64
2020/12/31 05:38:57;;;;;;;6.85;5.72;;;;;;;4.17;68.36;99832.47;4986902;28;98670;-65
2020/12/31 05:41:38;;;;;;;5.65;4.70;;;;;;;4.13;68.70;99835.19;4986195;28;98411;-64
2020/12/31 05:44:06;;;;;;;7.13;6.35;;;;;;;4.05;68.82;99829.38;4985630;28;98858;-65
2020/12/31 05:46:37;;;;;;;7.93;5.63;;;;;;;4.12;68.69;99830.91;4985759;28;98310;-64
2020/12/31 05:49:10;;;;;;;6.03;5.40;;;;;;;4.03;68.61;99833.75;4986101;28;100446;-65
2020/12/31 05:51:37;;;;;;;8.35;6.43;;;;;;;3.90;69.15;99839.28;4985058;28;98478;-65
2020/12/31 05:54:05;;;;;;;5.78;5.03;;;;;;;3.90;69.21;99839.28;4985359;28;100246;-65
2020/12/31 05:56:32;;;;;;;7.97;5.78;;;;;;;3.92;69.03;99842.66;4986579;28;97863;-65
2020/12/31 05:59:22;;;;;;;8.50;6.55;;;;;;;4.08;68.31;99843.06;4986612;28;98613;-67
2020/12/31 06:01:59;;;;;;;7.47;6.07;;;;;;;4.05;68.53;99839.72;4952449;28;100279;-66
2020/12/31 06:04:31;;;;;;;7.00;6.28;;;;;;;4.03;68.52;99849.25;4984407;28;98131;-66
2020/12/31 06:07:01;;;;;;;7.25;6.13;;;;;;;4.00;68.42;99845.03;4986210;28;98597;-66
2020/12/31 06:09:29;;;;;;;6.47;5.72;;;;;;;3.92;68.88;99852.13;4985926;28;98609;-66
2020/12/31 06:11:59;;;;;;;6.03;5.43;;;;;;;4.01;68.31;99856.19;4986578;28;98433;-65
2020/12/31 06:14:32;;;;;;;5.78;5.25;;;;;;;4.06;68.29;99857.75;4985553;28;97262;-66
2020/12/31 06:17:05;;;;;;;6.90;6.05;;;;;;;4.14;67.79;99862.66;4985110;28;96783;-64
2020/12/31 06:19:39;;;;;;;6.88;5.40;;;;;;;4.00;67.69;99868.25;4985001;28;98557;-65
2020/12/31 06:22:07;;;;;;;5.50;5.00;;;;;;;3.98;67.91;99870.00;4986479;28;98532;-64
2020/12/31 06:24:36;;;;;;;7.05;6.38;;;;;;;3.87;68.56;99865.16;4985336;28;97335;-64
2020/12/31 06:27:10;;;;;;;6.97;5.78;;;;;;;3.99;68.43;99868.25;4986586;28;97840;-64
2020/12/31 06:29:46;;;;;;;6.55;5.90;;;;;;;3.83;68.84;99873.00;4985667;28;98587;-66
2020/12/31 06:32:34;;;;;;;5.75;4.72;;;;;;;3.87;68.79;99872.03;4987645;28;98453;-65
2020/12/31 06:35:10;;;;;;;5.10;4.40;;;;;;;3.90;68.53;99879.72;4982658;28;97582;-65
2020/12/31 06:37:37;;;;;;;5.68;5.18;;;;;;;3.84;68.20;99879.88;4967907;28;98584;-66
2020/12/31 06:40:28;;;;;;;7.32;4.72;;;;;;;3.70;68.57;99882.00;4985610;28;100832;-66
2020/12/31 06:43:10;;;;;;;5.47;4.90;;;;;;;3.78;68.37;99882.63;4985945;28;99614;-66
2020/12/31 06:45:39;;;;;;;6.20;5.32;;;;;;;3.85;68.45;99886.72;4967128;28;98374;-62
2020/12/31 06:48:35;;;;;;;6.25;5.65;;;;;;;3.84;68.31;99890.19;4986228;28;97620;-65
2020/12/31 06:51:11;;;;;;;6.95;6.05;;;;;;;3.84;68.38;99900.50;4971254;28;98607;-65
2020/12/31 06:53:39;;;;;;;7.10;5.70;;;;;;;3.80;68.43;99902.31;4985108;28;98482;-66
2020/12/31 06:56:07;;;;;;;8.25;6.10;;;;;;;3.75;68.72;99905.91;4985364;28;97468;-66
2020/12/31 06:58:33;;;;;;;11.70;7.18;;;;;;;3.85;68.91;99897.03;4988845;28;96634;-66
2020/12/31 07:01:06;;;;;;;8.25;6.95;;;;;;;3.84;68.87;99905.66;4985890;28;98502;-66
2020/12/31 07:03:41;;;;;;;9.90;6.80;;;;;;;3.83;68.51;99909.13;4984126;28;98587;-65
2020/12/31 07:06:20;;;;;;;10.05;6.75;;;;;;;3.70;69.19;99913.78;4985394;28;97394;-66
2020/12/31 07:08:50;;;;;;;11.90;7.18;;;;;;;3.85;68.54;99912.50;4985701;28;97789;-66
2020/12/31 07:11:38;;;;;;;10.00;6.43;;;;;;;3.87;68.30;99913.31;4985331;28;98474;-66
2020/12/31 07:14:25;;;;;;;8.80;5.95;;;;;;;4.12;68.46;99905.72;4984991;28;98616;-66
2020/12/31 07:16:54;;;;;;;7.65;5.88;;;;;;;4.34;67.37;99914.53;4984160;28;98836;-66
2020/12/31 07:19:21;;;;;;;6.68;5.75;;;;;;;4.39;66.87;99916.97;4984953;28;97575;-66
2020/12/31 07:21:51;;;;;;;9.02;4.95;;;;;;;4.52;66.31;99920.84;4983829;28;98555;-66
2020/12/31 07:24:28;;;;;;;5.38;3.97;;;;;;;4.65;65.87;99919.59;4984281;28;98458;-66
2020/12/31 07:26:56;;;;;;;5.30;4.20;;;;;;;4.70;66.03;99916.88;4984946;28;96622;-66
2020/12/31 07:29:25;;;;;;;5.30;4.65;;;;;;;4.81;65.86;99921.72;4985187;28;97856;-66
2020/12/31 07:31:51;;;;;;;6.82;4.60;;;;;;;4.93;65.60;99924.75;4985197;28;98870;-67
2020/12/31 07:34:31;;;;;;;5.95;5.35;;;;;;;5.27;65.58;99931.38;4967218;28;98488;-67
2020/12/31 07:37:02;;;;;;;9.13;4.53;;;;;;;5.84;63.71;99916.50;4990126;28;97169;-66
2020/12/31 07:39:29;;;;;;;6.57;5.18;;;;;;;6.40;62.54;99916.22;4988589;28;96660;-66
2020/12/31 07:42:12;;;;;;;7.50;4.82;;;;;;;6.75;60.92;99922.59;4985788;28;98733;-66
2020/12/31 07:44:54;;;;;;;7.90;5.90;;;;;;;7.13;61.38;99928.81;4984488;28;100362;-67
2020/12/31 07:47:22;;;;;;;5.57;4.07;;;;;;;7.43;60.22;99920.69;4984598;28;99765;-76
2020/12/31 07:49:50;;;;;;;4.85;4.35;;;;;;;7.74;60.09;99920.22;4984042;28;97841;-75
2020/12/31 07:52:22;;;;;;;5.85;4.68;;;;;;;7.89;58.22;99924.75;5057069;27;953788;-73
2020/12/31 07:54:48;;;;;;;6.47;5.00;;;;;;;8.16;57.72;99929.63;5068908;27;98973;-75
2020/12/31 07:57:15;;;;;;;4.65;4.25;;;;;;;8.37;56.98;99936.47;5067578;27;99110;-72
2020/12/31 07:59:42;;;;;;;6.30;4.70;;;;;;;8.45;55.85;99931.75;5061904;27;98614;-73
2020/12/31 08:02:09;;;;;;;6.45;4.47;;;;;;;8.62;55.62;99929.22;5065579;27;96968;-73
2020/12/31 08:04:35;;;;;;;6.22;4.82;;;;;;;8.92;55.54;99934.72;5067555;27;96628;-73
2020/12/31 08:07:03;;;;;;;4.82;4.43;;;;;;;9.15;54.62;99940.56;5066636;27;98541;-73
2020/12/31 08:09:30;;;;;;;4.93;4.53;;;;;;;9.35;53.88;99937.81;5069104;27;98547;-72
2020/12/31 08:11:56;;;;;;;5.90;4.93;;;;;;;9.49;52.90;99944.94;5066817;27;96866;-73
2020/12/31 08:14:23;;;;;;;5.28;4.22;;;;;;;9.60;52.08;99945.25;5068446;27;96827;-78
2020/12/31 08:17:02;;;;;;;5.40;4.88;;;;;;;9.57;53.00;99947.16;5058956;27;98622;-75
2020/12/31 08:19:29;;;;;;;5.97;4.55;;;;;;;9.58;51.87;99954.03;5066212;27;98548;-73
2020/12/31 08:22:01;;;;;;;7.25;5.18;;;;;;;9.57;51.68;99952.34;5059857;27;96592;-73
2020/12/31 08:24:27;;;;;;;6.78;4.85;;;;;;;9.56;52.41;99955.88;5067945;27;96680;-73
2020/12/31 08:26:55;;;;;;;7.95;5.05;;;;;;;9.66;52.08;99954.50;5060585;27;98477;-73
2020/12/31 08:29:25;;;;;;;7.82;6.38;;;;;;;9.63;52.50;99952.88;5065960;27;98640;-72
2020/12/31 08:31:52;;;;;;;11.15;7.57;;;;;;;9.53;53.28;99950.81;5065875;27;97016;-75
2020/12/31 08:34:24;;;;;;;11.13;8.45;;;;;;;9.44;53.03;99957.34;5070412;27;97150;-72
2020/12/31 08:36:50;;;;;;;18.90;14.63;;;;;;;9.34;53.51;99956.94;5070899;27;98488;-71
2020/12/31 08:39:17;;;;;;;18.88;15.32;;;;;;;9.29;53.77;99958.94;5067397;27;98587;-68
2020/12/31 08:41:56;;;;;;;18.88;14.40;;;;;;;9.15;54.44;99957.00;5070847;27;97772;-70
2020/12/31 08:44:24;;;;;;;14.73;12.63;;;;;;;8.90;55.57;99966.91;5060008;27;96644;-69
2020/12/31 08:46:50;;;;;;;15.35;12.70;;;;;;;8.72;56.08;99954.78;5058164;27;98401;-69
2020/12/31 08:49:25;;;;;;;13.27;11.60;;;;;;;8.33;56.98;99958.28;5057465;27;98456;-68
2020/12/31 08:51:53;;;;;;;17.60;14.07;;;;;;;8.09;58.38;99967.97;5057342;27;96618;-69
2020/12/31 08:54:19;;;;;;;19.50;14.98;;;;;;;7.90;59.04;99973.16;5061686;27;98180;-70
2020/12/31 08:56:46;;;;;;;29.65;25.80;;;;;;;7.72;60.05;99961.78;5058406;27;98430;-70
2020/12/31 08:59:16;;;;;;;19.38;15.57;;;;;;;7.54;60.66;99968.59;5060626;27;98498;-69
2020/12/31 09:01:43;;;;;;;17.98;14.02;;;;;;;7.53;60.60;99977.31;5054259;27;96878;-70
2020/12/31 09:04:19;;;;;;;15.18;12.07;;;;;;;7.44;61.42;99976.84;5049173;27;96881;-65
2020/12/31 09:06:51;;;;;;;18.20;14.30;;;;;;;7.44;61.25;99984.63;5053547;27;98443;-63
2020/12/31 09:09:22;;;;;;;17.52;13.95;;;;;;;7.35;61.76;99980.66;5049014;27;98518;-64
2020/12/31 09:11:53;;;;;;;18.30;15.30;;;;;;;7.27;62.62;99983.56;5054137;27;96748;-63
2020/12/31 09:14:19;;;;;;;16.35;14.63;;;;;;;7.23;63.33;99992.34;5053250;27;96626;-63
2020/12/31 09:16:45;;;;;;;15.32;12.35;;;;;;;7.17;63.38;99986.59;5044136;27;98438;-68
2020/12/31 09:19:12;;;;;;;17.67;14.63;;;;;;;6.81;64.74;99992.31;5044782;27;98552;-68
2020/12/31 09:21:38;;;;;;;16.48;12.02;;;;;;;6.83;64.50;99988.75;5047021;27;96555;-64
2020/12/31 09:24:18;;;;;;;12.55;10.35;;;;;;;6.76;64.69;99996.81;5039587;27;97004;-64
2020/12/31 09:26:54;;;;;;;11.85;8.85;;;;;;;6.58;65.53;99985.41;5045725;27;98529;-64
2020/12/31 09:29:20;;;;;;;13.70;9.80;;;;;;;6.70;65.51;99992.72;5043342;27;98632;-65
2020/12/31 09:31:47;;;;;;;11.43;7.65;;;;;;;6.70;66.02;100000.47;5055218;27;96509;-65
2020/12/31 09:34:13;;;;;;;9.02;6.20;;;;;;;6.30;67.08;100006.31;5058527;27;96680;-65
2020/12/31 09:36:40;;;;;;;12.77;7.38;;;;;;;6.52;66.42;100003.78;5058495;27;98469;-65
2020/12/31 09:39:06;;;;;;;6.90;6.20;;;;;;;6.42;67.02;100000.69;5058171;27;98453;-65
2020/12/31 09:41:32;;;;;;;12.88;9.50;;;;;;;6.53;67.42;99993.34;5056737;27;96695;-62
2020/12/31 09:43:59;;;;;;;10.57;8.93;;;;;;;6.25;68.00;99998.72;5051469;27;96637;-64
2020/12/31 09:46:26;;;;;;;17.38;13.60;;;;;;;6.22;68.12;99993.63;5048665;27;98410;-62
2020/12/31 09:48:52;;;;;;;30.30;23.40;;;;;;;6.13;68.15;99995.72;5044749;27;98463;-64
2020/12/31 09:51:19;;;;;;;12.75;9.18;;;;;;;6.29;68.25;99991.69;5039799;27;96843;-62
2020/12/31 09:53:46;;;;;;;18.63;16.25;;;;;;;6.38;68.53;99995.66;5042478;27;96612;-65
2020/12/31 09:56:13;;;;;;;14.60;8.57;;;;;;;6.48;68.52;99997.00;5044571;27;98693;-65
2020/12/31 09:58:40;;;;;;;9.85;8.75;;;;;;;6.62;68.08;99994.75;5050248;27;98563;-65
2020/12/31 10:01:06;;;;;;;8.80;7.88;;;;;;;6.67;67.81;99997.19;5049751;27;98266;-65
2020/12/31 10:03:33;;;;;;;9.20;7.07;;;;;;;6.73;67.01;99992.59;5049984;27;96629;-67
2020/12/31 10:05:59;;;;;;;8.95;8.05;;;;;;;6.85;66.32;99993.88;5050920;27;98791;-66
2020/12/31 10:08:26;;;;;;;7.85;7.00;;;;;;;6.83;65.89;99996.53;5044449;27;98695;-65
2020/12/31 10:10:52;;;;;;;7.63;6.68;;;;;;;6.77;65.92;99989.00;5045402;27;96725;-65
2020/12/31 10:13:19;;;;;;;6.60;5.85;;;;;;;6.74;65.32;99980.50;5048053;27;96938;-65
2020/12/31 10:15:45;;;;;;;9.77;8.25;;;;;;;6.70;65.78;99984.09;5038413;27;98444;-64
2020/12/31 10:18:11;;;;;;;7.40;6.22;;;;;;;6.59;65.75;99981.91;5042404;27;98531;-66
2020/12/31 10:20:38;;;;;;;17.40;6.40;;;;;;;6.83;65.89;99978.41;5052929;27;96603;-67
2020/12/31 10:23:04;;;;;;;13.50;12.10;;;;;;;6.72;65.93;99980.56;5056304;27;96581;-67
2020/12/31 10:25:31;;;;;;;16.23;14.60;;;;;;;6.72;66.45;99977.13;5053412;27;98569;-67
2020/12/31 10:27:58;;;;;;;10.38;9.27;;;;;;;6.85;65.96;99972.31;5047289;27;98621;-67
2020/12/31 10:30:25;;;;;;;5.60;4.25;;;;;;;6.97;64.81;99970.06;5045971;27;96558;-66
2020/12/31 10:32:51;;;;;;;5.55;5.00;;;;;;;7.09;63.81;99973.94;5051480;27;96732;-69
2020/12/31 10:35:18;;;;;;;7.13;6.28;;;;;;;6.70;64.54;99971.97;5051259;27;98498;-69
2020/12/31 10:37:44;;;;;;;17.38;7.18;;;;;;;6.85;64.55;99967.97;5050346;27;98560;-67
2020/12/31 10:40:10;;;;;;;7.65;6.25;;;;;;;6.96;63.88;99968.38;5044623;27;96981;-70
2020/12/31 10:42:37;;;;;;;10.35;6.90;;;;;;;6.91;64.80;99969.47;5049354;27;96625;-68
2020/12/31 10:45:03;;;;;;;10.52;8.18;;;;;;;7.10;63.70;99973.03;5048094;27;98438;-69
2020/12/31 10:47:29;;;;;;;5.65;5.05;;;;;;;7.19;63.59;99967.50;5045210;27;98659;-73
2020/12/31 10:49:56;;;;;;;5.85;4.38;;;;;;;7.32;63.34;99966.06;5043368;27;96927;-68
2020/12/31 10:52:22;;;;;;;5.60;4.30;;;;;;;7.07;62.22;99966.22;5046909;27;96638;-71
2020/12/31 10:54:48;;;;;;;4.15;3.70;;;;;;;7.20;62.52;99960.56;5049529;27;98452;-69
2020/12/31 10:57:18;;;;;;;5.57;4.45;;;;;;;7.25;62.32;99961.22;5049796;27;98582;-71
2020/12/31 10:59:44;;;;;;;9.50;8.38;;;;;;;7.24;62.67;99957.75;5049910;27;97878;-70
2020/12/31 11:02:10;;;;;;;15.55;10.95;;;;;;;7.20;62.99;99956.19;5045796;27;96665;-69
2020/12/31 11:04:37;;;;;;;8.88;6.40;;;;;;;7.22;62.77;99949.19;5049762;27;98381;-67
2020/12/31 11:07:03;;;;;;;12.90;10.63;;;;;;;7.21;61.89;99950.09;5048892;27;98591;-65
2020/12/31 11:09:29;;;;;;;13.70;9.75;;;;;;;7.06;62.87;99942.94;5038746;27;96506;-68
2020/12/31 11:11:56;;;;;;;11.50;9.52;;;;;;;7.18;62.53;99942.44;5043674;27;96807;-67
2020/12/31 11:14:22;;;;;;;11.07;8.57;;;;;;;7.31;62.39;99941.06;5041975;27;98588;-67
2020/12/31 11:16:50;;;;;;;23.20;17.02;;;;;;;7.34;62.01;99938.31;5048662;27;98543;-67
2020/12/31 11:19:16;;;;;;;20.58;15.38;;;;;;;7.45;63.06;99937.03;5053053;27;97451;-64
2020/12/31 11:21:42;;;;;;;12.27;7.40;;;;;;;7.45;62.83;99940.47;5048528;27;96688;-64
2020/12/31 11:24:09;;;;;;;10.15;7.72;;;;;;;7.55;62.80;99931.38;5051545;27;98577;-69
2020/12/31 11:26:35;;;;;;;17.65;13.32;;;;;;;7.44;63.81;99922.38;5050887;27;98649;-73
2020/12/31 11:29:02;;;;;;;11.88;6.55;;;;;;;7.52;63.23;99922.91;5044201;27;96564;-72
2020/12/31 11:31:29;;;;;;;19.45;9.07;;;;;;;7.56;64.35;99924.44;5045858;27;96636;-69
2020/12/31 11:33:56;;;;;;;6.43;5.38;;;;;;;7.48;63.00;99919.59;5048123;27;98705;-67
2020/12/31 11:36:25;;;;;;;13.63;8.70;;;;;;;7.51;62.94;99919.47;5045379;27;98633;-68
2020/12/31 11:38:52;;;;;;;8.55;7.05;;;;;;;7.52;63.07;99920.31;5043089;27;96701;-67
2020/12/31 11:41:18;;;;;;;12.63;10.90;;;;;;;7.52;62.83;99910.78;5042772;27;96612;-69
2020/12/31 11:43:45;;;;;;;18.90;15.93;;;;;;;7.40;62.88;99910.44;5047521;27;98629;-67